Time;durP1;ratioP1;P1;durP2;ratioP2;P2;SDS_P1;SDS_P2;PMS_P1;PMS_P2;Temp;Humidity;BMP_temperature;BMP_pressure;BME280_temperature;BME280_humidity;BME280_pressure;Samples;Min_cycle;Max_cycle;Signal;HPM_P1;HPM_P2
2023/03/12 00:01:22;;;;;;;8.13;4.32;;;;;;;-146.27;49.35;48395.59;5081226;28;20039;-68
2023/03/12 00:03:48;;;;;;;8.73;3.67;;;;;;;-146.27;49.28;48399.59;5084235;28;20106;-68
2023/03/12 00:06:15;;;;;;;10.55;4.28;;;;;;;-146.27;48.78;48395.59;5080933;28;20051;-70
2023/03/12 00:08:41;;;;;;;7.05;4.10;;;;;;;-146.27;49.11;48379.66;5085088;28;20031;-68
2023/03/12 00:11:08;;;;;;;8.98;4.57;;;;;;;-146.27;49.81;48407.56;5088131;28;20024;-68
2023/03/12 00:13:33;;;;;;;7.28;4.45;;;;;;;-146.27;50.20;48383.66;5080533;28;20036;-67
2023/03/12 00:16:11;;;;;;;13.55;5.30;;;;;;;-146.27;50.86;48373.69;5090464;28;20030;-68
2023/03/12 00:18:37;;;;;;;8.90;4.60;;;;;;;-146.27;51.60;48377.69;5091936;28;20030;-68
2023/03/12 00:21:02;;;;;;;12.05;4.95;;;;;;;-146.27;51.98;48381.66;5080815;28;20103;-69
2023/03/12 00:23:28;;;;;;;17.38;4.97;;;;;;;-146.27;52.51;48405.56;5092280;28;20361;-68
2023/03/12 00:25:53;;;;;;;11.48;4.63;;;;;;;-146.27;52.57;48383.66;5090785;28;20028;-68
2023/03/12 00:28:18;;;;;;;6.97;4.93;;;;;;;-146.27;52.94;48395.59;5083165;28;20066;-69
2023/03/12 00:30:44;;;;;;;10.00;5.47;;;;;;;-146.27;54.08;48411.53;5089763;28;20028;-68
2023/03/12 00:33:10;;;;;;;9.20;4.75;;;;;;;-146.27;53.94;48391.63;5081730;28;20089;-69
2023/03/12 00:35:39;;;;;;;14.32;4.95;;;;;;;-146.27;53.89;48391.63;5097123;28;20399;-68
2023/03/12 00:38:04;;;;;;;10.77;4.85;;;;;;;-146.27;53.67;48407.56;5083369;28;20057;-68
2023/03/12 00:40:30;;;;;;;10.75;5.10;;;;;;;-146.27;53.97;48399.59;5090237;28;20036;-70
2023/03/12 00:42:55;;;;;;;10.00;5.15;;;;;;;-146.27;53.68;48415.53;5091668;28;20036;-70
2023/03/12 00:45:20;;;;;;;14.05;4.82;;;;;;;-146.27;53.79;48339.84;5083105;28;20031;-70
2023/03/12 00:47:46;;;;;;;8.73;4.35;;;;;;;-146.27;54.10;48391.63;5090616;28;20024;-69
2023/03/12 00:50:12;;;;;;;8.02;5.15;;;;;;;-146.27;54.25;48391.63;5090252;28;20530;-69
2023/03/12 00:52:38;;;;;;;12.50;4.55;;;;;;;-146.27;54.49;48397.59;5082042;28;20055;-69
2023/03/12 00:55:04;;;;;;;7.85;4.55;;;;;;;-146.27;55.49;48343.81;5086000;28;20031;-68
2023/03/12 00:57:29;;;;;;;10.77;4.88;;;;;;;-146.27;54.66;48367.72;5091641;28;20024;-69
2023/03/12 00:59:54;;;;;;;9.23;4.80;;;;;;;-146.27;54.86;48379.66;5084402;28;20024;-69
2023/03/12 01:02:20;;;;;;;10.43;5.45;;;;;;;-146.27;54.77;48363.75;5089232;28;20541;-69
2023/03/12 01:04:45;;;;;;;6.72;4.63;;;;;;;-146.27;55.31;48403.56;5092038;28;20024;-68
2023/03/12 01:07:10;;;;;;;11.88;5.38;;;;;;;-146.27;55.84;48399.59;5091328;28;20514;-69
2023/03/12 01:09:36;;;;;;;6.88;4.40;;;;;;;-146.27;56.00;48375.69;5089464;28;20107;-69
2023/03/12 01:12:01;;;;;;;9.27;4.40;;;;;;;-146.27;56.49;48391.63;5065849;28;20535;-68
2023/03/12 01:14:27;;;;;;;8.57;4.70;;;;;;;-146.27;56.44;48363.75;5090007;28;20086;-69
2023/03/12 01:16:52;;;;;;;7.70;4.32;;;;;;;-146.27;56.46;48387.63;5085942;28;20424;-68
2023/03/12 01:19:17;;;;;;;9.13;4.20;;;;;;;-146.27;56.25;48407.56;5078603;28;20024;-68
2023/03/12 01:21:43;;;;;;;12.02;4.70;;;;;;;-146.27;57.27;48409.53;5086028;28;20076;-69
2023/03/12 01:24:08;;;;;;;7.53;4.55;;;;;;;-146.27;56.97;48379.66;5088542;28;20058;-68
2023/03/12 01:26:33;;;;;;;7.65;4.57;;;;;;;-146.27;58.36;48343.81;5090151;28;20467;-69
2023/03/12 01:28:59;;;;;;;8.65;4.82;;;;;;;-146.27;58.18;48407.56;5083434;28;20077;-69
2023/03/12 01:31:24;;;;;;;7.57;4.78;;;;;;;-146.27;57.88;48393.63;5077351;28;20060;-68
2023/03/12 01:33:52;;;;;;;13.35;4.43;;;;;;;-146.27;58.29;48377.69;5087919;28;20028;-67
2023/03/12 01:36:22;;;;;;;11.00;4.80;;;;;;;-146.27;58.25;48369.72;5080509;28;20029;-68
2023/03/12 01:38:49;;;;;;;7.53;4.47;;;;;;;-146.27;57.74;48369.72;5087516;28;20181;-68
2023/03/12 01:41:15;;;;;;;9.13;4.15;;;;;;;-146.27;58.39;48379.66;5087263;28;20028;-68
2023/03/12 01:43:40;;;;;;;14.32;4.60;;;;;;;-146.27;57.27;48353.78;5087049;28;20028;-68
2023/03/12 01:46:24;;;;;;;12.65;4.57;;;;;;;-146.27;57.55;48379.66;5076691;28;20148;-67
2023/03/12 01:48:55;;;;;;;8.85;4.40;;;;;;;-146.27;57.27;48407.56;5093478;28;20069;-69
2023/03/12 01:51:23;;;;;;;10.60;4.20;;;;;;;-146.27;56.79;48387.63;5096077;28;20036;-68
2023/03/12 01:53:53;;;;;;;12.07;3.85;;;;;;;-146.27;56.57;48397.59;5086073;28;20029;-68
2023/03/12 01:56:20;;;;;;;10.32;4.13;;;;;;;-146.27;57.10;48353.78;5094982;28;20494;-69
2023/03/12 01:58:51;;;;;;;9.05;3.97;;;;;;;-146.27;55.80;48405.56;5095270;28;20028;-68
2023/03/12 02:01:19;;;;;;;10.57;4.32;;;;;;;-146.27;56.02;48391.63;5089562;28;20146;-69
2023/03/12 02:03:50;;;;;;;9.73;4.07;;;;;;;-146.27;57.97;48415.53;5093375;28;20028;-68
2023/03/12 02:06:19;;;;;;;9.90;4.28;;;;;;;-146.27;58.00;48379.66;5091079;28;20123;-70
2023/03/12 02:08:46;;;;;;;8.80;3.85;;;;;;;-146.27;57.38;48373.69;5091126;28;20372;-68
2023/03/12 02:11:12;;;;;;;8.77;3.83;;;;;;;-146.27;56.92;48395.59;5086714;28;20066;-67
2023/03/12 02:13:38;;;;;;;9.93;3.70;;;;;;;-146.27;57.88;48427.47;5092425;28;20475;-69
2023/03/12 02:16:04;;;;;;;9.18;4.38;;;;;;;-146.27;56.88;48397.59;5093749;28;20024;-67
2023/03/12 02:18:29;;;;;;;9.45;3.53;;;;;;;-146.27;56.75;48339.84;5091604;28;20032;-68
2023/03/12 02:21:06;;;;;;;7.50;3.65;;;;;;;-146.27;56.20;48387.63;5086398;28;20024;-67
2023/03/12 02:23:40;;;;;;;11.27;4.20;;;;;;;-146.27;55.35;48387.63;5089734;28;20395;-68
2023/03/12 02:26:06;;;;;;;7.45;3.95;;;;;;;-146.27;54.68;48403.56;5085635;28;20068;-68
2023/03/12 02:28:41;;;;;;;6.88;3.22;;;;;;;-146.27;54.16;48393.63;5075423;28;20130;-68
2023/03/12 02:31:07;;;;;;;8.38;3.70;;;;;;;-146.27;53.78;48349.78;5090034;28;20027;-68
2023/03/12 02:33:33;;;;;;;6.70;3.20;;;;;;;-146.27;53.95;48375.69;5092483;28;20036;-68
2023/03/12 02:35:58;;;;;;;6.72;3.38;;;;;;;-146.27;54.12;48383.66;5093069;28;20024;-67
2023/03/12 02:38:35;;;;;;;6.80;3.40;;;;;;;-146.27;54.41;48423.50;5086783;28;20035;-69
2023/03/12 02:41:09;;;;;;;11.30;3.28;;;;;;;-146.27;54.14;48405.56;5085855;28;20028;-69
2023/03/12 02:43:35;;;;;;;;;;;;;;;-146.27;54.50;48359.75;5093775;28;20050;-66
2023/03/12 02:46:00;;;;;;;5.75;3.10;;;;;;;-146.27;53.99;48389.63;5089610;28;19920;-68
2023/03/12 02:48:25;;;;;;;10.98;3.47;;;;;;;-146.27;54.45;48399.59;5091747;28;20027;-69
2023/03/12 02:50:51;;;;;;;9.85;3.92;;;;;;;-146.27;54.78;48381.66;5093883;28;20020;-69
2023/03/12 02:53:16;;;;;;;12.55;3.45;;;;;;;-146.27;56.19;48369.72;5079242;28;20028;-68
2023/03/12 02:55:41;;;;;;;8.73;3.35;;;;;;;-146.27;56.43;48355.78;5084516;28;20017;-68
2023/03/12 02:58:07;;;;;;;6.28;3.10;;;;;;;-146.27;57.29;48391.63;5092276;28;20024;-68
2023/03/12 03:00:32;;;;;;;9.50;3.53;;;;;;;-146.27;60.37;48407.56;5082927;28;20025;-68
2023/03/12 03:02:59;;;;;;;10.40;3.47;;;;;;;-146.27;61.41;48371.69;5081252;28;20032;-67
2023/03/12 03:05:24;;;;;;;5.50;3.65;;;;;;;-146.27;65.15;48403.56;5091653;28;20497;-67
2023/03/12 03:07:49;;;;;;;7.40;3.22;;;;;;;-146.27;64.25;48335.84;5092029;28;20055;-67
2023/03/12 03:10:16;;;;;;;7.25;3.17;;;;;;;-146.27;65.07;48391.63;5087508;28;20414;-67
2023/03/12 03:12:42;;;;;;;5.80;2.90;;;;;;;-146.27;66.33;48407.56;5091040;28;20099;-67
2023/03/12 03:15:09;;;;;;;6.78;2.58;;;;;;;-146.27;67.58;48379.66;5082379;28;21577;-67
2023/03/12 03:17:34;;;;;;;13.90;3.00;;;;;;;-146.27;67.28;48379.66;5092622;28;20031;-67
2023/03/12 03:20:00;;;;;;;6.68;3.22;;;;;;;-146.27;66.62;48385.66;5088966;28;20036;-67
2023/03/12 03:22:25;;;;;;;8.50;2.92;;;;;;;-146.27;67.14;48363.75;5089932;28;20031;-67
2023/03/12 03:24:52;;;;;;;9.93;3.60;;;;;;;-146.27;67.00;48377.69;5080575;28;20606;-66
2023/03/12 03:27:18;;;;;;;7.72;3.88;;;;;;;-146.27;66.82;48385.66;5085076;28;20407;-68
2023/03/12 03:29:45;;;;;;;7.07;4.07;;;;;;;-146.27;67.23;48397.59;5083217;28;20028;-67
2023/03/12 03:32:10;;;;;;;9.25;3.33;;;;;;;-146.27;66.25;48379.66;5084932;28;20032;-68
2023/03/12 03:34:36;;;;;;;7.22;3.70;;;;;;;-146.27;66.60;48369.72;5076607;28;20100;-67
2023/03/12 03:37:01;;;;;;;9.38;3.95;;;;;;;-146.27;66.63;48375.69;5090244;28;20404;-66
2023/03/12 03:39:28;;;;;;;7.47;3.80;;;;;;;-146.27;66.35;48413.53;5085454;28;20020;-67
2023/03/12 03:41:53;;;;;;;9.48;3.42;;;;;;;-146.27;67.50;48369.72;5086439;28;20032;-68
2023/03/12 03:44:21;;;;;;;8.80;3.90;;;;;;;-146.27;67.64;48419.50;5087043;28;20031;-67
2023/03/12 03:46:46;;;;;;;7.85;3.42;;;;;;;-146.27;67.86;48415.53;5076801;28;20364;-69
2023/03/12 03:49:12;;;;;;;8.73;3.42;;;;;;;-146.27;68.97;48383.66;5093750;28;20032;-69
2023/03/12 03:51:37;;;;;;;12.75;3.88;;;;;;;-146.27;69.95;48375.69;5085113;28;20413;-69
2023/03/12 03:54:03;;;;;;;10.57;4.07;;;;;;;-146.27;70.39;48383.66;5090884;28;20491;-69
2023/03/12 03:56:28;;;;;;;9.68;3.63;;;;;;;-146.27;69.99;48363.75;5082762;28;20065;-69
2023/03/12 03:58:53;;;;;;;9.82;3.65;;;;;;;-146.27;69.64;48407.56;5089097;28;20028;-69
2023/03/12 04:01:19;;;;;;;7.57;3.42;;;;;;;-146.27;70.37;48385.66;5078468;28;20111;-68
2023/03/12 04:03:45;;;;;;;9.38;3.97;;;;;;;-146.27;70.65;48383.66;5088044;28;20102;-68
2023/03/12 04:06:11;;;;;;;7.78;3.40;;;;;;;-146.27;71.29;48413.53;5073913;28;20040;-68
2023/03/12 04:08:37;;;;;;;5.88;3.00;;;;;;;-146.27;72.24;48403.56;5076652;28;20142;-67
2023/03/12 04:11:12;;;;;;;11.13;3.97;;;;;;;-146.27;72.40;48367.72;5089007;28;20026;-68
2023/03/12 04:13:37;;;;;;;8.15;3.40;;;;;;;-146.27;72.59;48389.63;5091256;28;20039;-69
2023/03/12 04:16:03;;;;;;;11.48;3.40;;;;;;;-146.27;73.52;48375.69;5091193;28;20078;-68
2023/03/12 04:18:28;;;;;;;8.32;3.78;;;;;;;-146.27;73.20;48409.53;5083906;28;20023;-68
2023/03/12 04:20:53;;;;;;;6.88;3.38;;;;;;;-146.27;72.63;48371.69;5091701;28;20105;-67
2023/03/12 04:23:19;;;;;;;14.27;3.83;;;;;;;-146.27;73.22;48409.53;5091513;28;20028;-67
2023/03/12 04:25:44;;;;;;;7.90;3.50;;;;;;;-146.27;73.33;48383.66;5091733;28;20384;-68
2023/03/12 04:28:09;;;;;;;9.68;4.60;;;;;;;-146.27;75.89;48383.66;5079570;28;20039;-67
2023/03/12 04:30:37;;;;;;;14.45;4.22;;;;;;;-146.27;76.00;48383.66;5083325;28;20540;-68
2023/03/12 04:33:03;;;;;;;13.40;4.55;;;;;;;-146.27;79.21;48395.59;5082993;28;20028;-67
2023/03/12 04:35:28;;;;;;;17.58;3.78;;;;;;;-146.27;79.93;48391.63;5076065;28;20353;-67
2023/03/12 04:37:54;;;;;;;7.72;4.20;;;;;;;-146.27;81.99;48381.66;5085476;28;20047;-67
2023/03/12 04:40:19;;;;;;;8.90;4.55;;;;;;;-146.27;81.77;48373.69;5078616;28;20396;-69
2023/03/12 04:42:45;;;;;;;6.63;4.60;;;;;;;-146.27;83.01;48383.66;5084794;28;20050;-68
2023/03/12 04:45:10;;;;;;;10.63;4.47;;;;;;;-146.27;84.52;48381.66;5089826;28;20082;-67
2023/03/12 04:47:36;;;;;;;8.57;5.15;;;;;;;-146.27;84.46;48387.63;5077971;28;20060;-68
2023/03/12 04:50:02;;;;;;;8.55;5.07;;;;;;;-146.27;85.18;48399.59;5079365;28;20029;-68
2023/03/12 04:52:27;;;;;;;7.25;5.13;;;;;;;-146.27;86.59;48389.63;5085885;28;20106;-69
2023/03/12 04:54:53;;;;;;;10.48;5.57;;;;;;;-146.27;89.31;48379.66;5089167;28;20028;-68
2023/03/12 04:57:19;;;;;;;14.40;5.53;;;;;;;-146.27;90.78;48393.63;5090517;28;20053;-69
2023/03/12 04:59:44;;;;;;;9.18;5.47;;;;;;;-146.27;89.88;48367.72;5084359;28;20020;-69
2023/03/12 05:02:10;;;;;;;12.32;5.68;;;;;;;-146.27;89.78;48393.63;5081593;28;20032;-68
2023/03/12 05:04:35;;;;;;;8.27;5.55;;;;;;;-146.27;91.10;48385.66;5083667;28;20031;-68
2023/03/12 05:07:01;;;;;;;14.35;7.05;;;;;;;-146.27;91.72;48397.59;5082751;28;20052;-68
2023/03/12 05:09:26;;;;;;;12.40;6.95;;;;;;;-146.27;90.42;48407.56;5083273;28;20028;-68
2023/03/12 05:11:51;;;;;;;13.68;7.95;;;;;;;-146.27;90.22;48407.56;5082596;28;20050;-70
2023/03/12 05:14:17;;;;;;;14.15;8.20;;;;;;;-146.27;91.53;48411.53;5078922;28;20075;-68
2023/03/12 05:16:42;;;;;;;26.48;12.20;;;;;;;-146.27;91.37;48407.56;5090534;28;20035;-68
2023/03/12 05:19:07;;;;;;;23.90;13.00;;;;;;;-146.27;92.71;48391.63;5090478;28;20024;-68
2023/03/12 05:21:33;;;;;;;26.10;12.85;;;;;;;-146.27;93.13;48387.63;5088701;28;20480;-68
2023/03/12 05:23:59;;;;;;;24.90;13.70;;;;;;;-146.27;91.33;48451.38;5086667;28;20518;-68
2023/03/12 05:26:28;;;;;;;21.77;11.15;;;;;;;-146.27;92.39;48391.63;5083038;28;20020;-68
2023/03/12 05:28:54;;;;;;;24.95;11.40;;;;;;;-146.27;91.88;48405.56;5089328;28;20036;-69
2023/03/12 05:31:20;;;;;;;26.00;10.35;;;;;;;-146.27;91.59;48419.50;5082472;28;20035;-68
2023/03/12 05:33:46;;;;;;;16.30;7.63;;;;;;;-146.27;93.08;48447.38;5095153;28;20024;-68
2023/03/12 05:36:13;;;;;;;13.07;7.65;;;;;;;-146.27;93.38;48427.47;5094571;28;20091;-68
2023/03/12 05:38:38;;;;;;;16.10;8.05;;;;;;;-146.27;93.15;48399.59;5091502;28;20025;-68
2023/03/12 05:41:05;;;;;;;12.52;8.80;;;;;;;-146.27;93.43;48391.63;5094065;28;20081;-69
2023/03/12 05:43:31;;;;;;;16.20;7.80;;;;;;;-146.27;93.03;48411.53;5090650;28;20107;-68
2023/03/12 05:46:01;;;;;;;15.02;7.13;;;;;;;-146.27;94.54;48395.59;5091527;28;20435;-67
2023/03/12 05:48:27;;;;;;;13.90;7.68;;;;;;;-146.27;95.98;48379.66;5093206;28;20035;-69
2023/03/12 05:50:52;;;;;;;19.50;7.82;;;;;;;-146.27;96.60;48393.63;5094274;28;20015;-69
2023/03/12 05:53:17;;;;;;;16.17;8.32;;;;;;;-146.27;96.80;48371.69;5090011;28;20027;-68
2023/03/12 05:55:43;;;;;;;14.48;8.68;;;;;;;-146.27;97.15;48403.56;5093895;28;20054;-68
2023/03/12 05:58:08;;;;;;;19.17;9.02;;;;;;;-146.27;98.47;48441.41;5095457;28;20491;-68
2023/03/12 06:00:36;;;;;;;14.95;8.70;;;;;;;-146.27;98.87;48393.63;5093575;28;20031;-68
2023/03/12 06:03:03;;;;;;;22.48;10.40;;;;;;;-146.27;100.00;48407.56;5089286;28;20038;-68
2023/03/12 06:05:30;;;;;;;20.90;10.07;;;;;;;-146.27;100.00;48439.41;5079831;28;20036;-68
2023/03/12 06:07:55;;;;;;;18.13;10.10;;;;;;;-146.27;100.00;48427.47;5092201;28;20035;-68
2023/03/12 06:10:20;;;;;;;18.05;10.20;;;;;;;-146.27;100.00;48383.66;5092045;28;20031;-67
2023/03/12 06:12:46;;;;;;;18.70;10.00;;;;;;;-146.27;100.00;48407.56;5081896;28;20035;-69
2023/03/12 06:15:11;;;;;;;25.08;11.30;;;;;;;-146.27;100.00;48375.69;5088769;28;20028;-68
2023/03/12 06:17:36;;;;;;;18.10;11.60;;;;;;;-146.27;100.00;48433.44;5089167;28;20471;-68
2023/03/12 06:20:02;;;;;;;16.10;9.90;;;;;;;-146.27;100.00;48379.66;5094919;28;20035;-68
2023/03/12 06:22:28;;;;;;;19.00;11.73;;;;;;;-146.27;100.00;48403.56;5088808;28;20029;-68
2023/03/12 06:24:54;;;;;;;17.17;11.00;;;;;;;-146.27;100.00;48411.53;5087218;28;20078;-69
2023/03/12 06:27:19;;;;;;;17.00;11.57;;;;;;;-146.27;100.00;48403.56;5084255;28;20091;-68
2023/03/12 06:29:46;;;;;;;21.38;11.50;;;;;;;-146.27;100.00;48389.63;5083791;28;20560;-68
2023/03/12 06:32:11;;;;;;;19.02;11.77;;;;;;;-146.27;99.56;48389.63;5092687;28;20120;-68
2023/03/12 06:34:37;;;;;;;19.92;10.52;;;;;;;-146.27;99.91;48403.56;5091214;28;20099;-68
2023/03/12 06:37:02;;;;;;;18.88;10.68;;;;;;;-146.27;99.97;48427.47;5092455;28;20082;-67
2023/03/12 06:39:28;;;;;;;19.70;11.43;;;;;;;-146.27;100.00;48411.53;5089858;28;20020;-68
2023/03/12 06:41:54;;;;;;;18.95;11.50;;;;;;;-146.27;100.00;48379.66;5087797;28;20053;-68
2023/03/12 06:44:20;;;;;;;15.93;10.63;;;;;;;-146.27;100.00;48395.59;5094927;28;20043;-66
2023/03/12 06:46:45;;;;;;;19.08;10.77;;;;;;;-146.27;100.00;48375.69;5083816;28;20016;-67
2023/03/12 06:49:11;;;;;;;18.25;11.07;;;;;;;-146.27;100.00;48383.66;5080310;28;20032;-67
2023/03/12 06:51:36;;;;;;;23.17;10.73;;;;;;;-146.27;100.00;48399.59;5091050;28;20467;-67
2023/03/12 06:54:02;;;;;;;13.68;10.38;;;;;;;-146.27;100.00;48417.50;5079110;28;20036;-67
2023/03/12 06:56:28;;;;;;;15.48;10.10;;;;;;;-146.27;100.00;48389.63;5087257;28;20594;-68
2023/03/12 06:58:54;;;;;;;18.15;10.93;;;;;;;-146.27;100.00;48415.53;5082835;28;20118;-68
2023/03/12 07:01:20;;;;;;;16.35;10.65;;;;;;;-146.27;100.00;48395.59;5087348;28;20051;-68
2023/03/12 07:03:46;;;;;;;15.40;11.18;;;;;;;-146.27;100.00;48419.50;5091511;28;20113;-69
2023/03/12 07:06:17;;;;;;;17.63;10.45;;;;;;;-146.27;100.00;48391.63;5093758;28;20364;-68
2023/03/12 07:08:43;;;;;;;18.67;11.13;;;;;;;-146.27;100.00;48407.56;5086443;28;20059;-67
2023/03/12 07:11:09;;;;;;;17.55;12.05;;;;;;;-146.27;100.00;48403.56;5091564;28;20106;-66
2023/03/12 07:13:34;;;;;;;18.33;11.45;;;;;;;-146.27;100.00;48407.56;5090818;28;20476;-69
2023/03/12 07:16:00;;;;;;;24.30;12.60;;;;;;;-146.27;100.00;48399.59;5077526;28;20107;-68
2023/03/12 07:18:26;;;;;;;18.63;11.32;;;;;;;-146.27;100.00;48419.50;5081508;28;20464;-68
2023/03/12 07:20:52;;;;;;;21.35;13.00;;;;;;;-146.27;100.00;48411.53;5088612;28;20031;-68
2023/03/12 07:23:18;;;;;;;18.70;12.10;;;;;;;-146.27;100.00;48377.69;5091550;28;20073;-70
2023/03/12 07:25:43;;;;;;;23.58;13.70;;;;;;;-146.27;100.00;48401.56;5085553;28;20024;-69
2023/03/12 07:28:11;;;;;;;25.10;14.60;;;;;;;-146.27;100.00;48415.53;5092017;28;20024;-69
2023/03/12 07:30:39;;;;;;;24.13;15.27;;;;;;;-146.27;100.00;48435.44;5086899;28;20468;-68
2023/03/12 07:33:08;;;;;;;29.65;15.52;;;;;;;-146.27;98.65;48407.56;5080297;28;20028;-69
2023/03/12 07:35:34;;;;;;;26.30;14.75;;;;;;;-146.27;95.71;48401.56;5091648;28;20097;-69
2023/03/12 07:38:00;;;;;;;31.88;17.08;;;;;;;-146.27;99.38;48359.75;5088420;28;20016;-68
2023/03/12 07:40:26;;;;;;;30.95;16.33;;;;;;;-146.27;98.10;48397.59;5081132;28;20025;-68
2023/03/12 07:42:51;;;;;;;26.30;16.15;;;;;;;-146.27;96.84;48383.66;5080335;28;20024;-68
2023/03/12 07:45:18;;;;;;;30.30;17.95;;;;;;;-146.27;97.99;48395.59;5087477;28;20028;-67
2023/03/12 07:47:43;;;;;;;30.92;17.65;;;;;;;-146.27;98.18;48379.66;5086860;28;20093;-69
2023/03/12 07:50:09;;;;;;;34.15;18.83;;;;;;;-146.27;100.00;48395.59;5087624;28;20028;-68
2023/03/12 07:52:35;;;;;;;37.35;17.83;;;;;;;-146.27;100.00;48419.50;5085112;28;20028;-70
2023/03/12 07:55:00;;;;;;;35.20;20.08;;;;;;;-146.27;100.00;48385.66;5085670;28;20141;-68
2023/03/12 07:57:26;;;;;;;38.90;20.00;;;;;;;-146.27;100.00;48383.66;5088578;28;20051;-68
2023/03/12 07:59:51;;;;;;;42.75;22.40;;;;;;;-146.27;100.00;48423.50;5088507;28;20123;-69
2023/03/12 08:02:17;;;;;;;42.65;21.77;;;;;;;-146.27;100.00;48423.50;5082890;28;20048;-68
2023/03/12 08:04:42;;;;;;;43.63;22.63;;;;;;;-146.27;100.00;48403.56;5083729;28;20028;-68
2023/03/12 08:07:07;;;;;;;47.85;22.95;;;;;;;-146.27;100.00;48395.59;5079134;28;20025;-68
2023/03/12 08:09:33;;;;;;;51.80;23.67;;;;;;;-146.27;100.00;48427.47;5081808;28;20032;-69
2023/03/12 08:11:59;;;;;;;53.35;25.65;;;;;;;-146.27;100.00;48419.50;5085584;28;20028;-69
2023/03/12 08:14:24;;;;;;;56.95;24.83;;;;;;;-146.27;100.00;48391.63;5082231;28;20066;-68
2023/03/12 08:16:50;;;;;;;63.13;26.52;;;;;;;-146.27;100.00;48407.56;5083996;28;20016;-69
2023/03/12 08:19:15;;;;;;;52.63;25.95;;;;;;;-146.27;100.00;48447.38;5086624;28;20060;-69
2023/03/12 08:21:41;;;;;;;51.08;23.88;;;;;;;-146.27;100.00;48399.59;5088053;28;20118;-69
2023/03/12 08:24:06;;;;;;;63.03;27.60;;;;;;;-146.27;100.00;48431.47;5082998;28;20020;-69
2023/03/12 08:26:32;;;;;;;63.15;25.52;;;;;;;-146.27;100.00;48415.53;5090058;28;20072;-69
2023/03/12 08:28:59;;;;;;;55.53;24.15;;;;;;;-146.27;100.00;48427.47;5083215;28;20534;-69
2023/03/12 08:31:25;;;;;;;57.95;26.02;;;;;;;-146.27;100.00;48435.44;5078909;28;20029;-70
2023/03/12 08:33:51;;;;;;;64.88;26.58;;;;;;;-146.27;100.00;48419.50;5088874;28;20031;-69
2023/03/12 08:36:16;;;;;;;60.17;25.80;;;;;;;-146.27;100.00;48419.50;5091314;28;20035;-69
2023/03/12 08:38:41;;;;;;;59.60;27.60;;;;;;;-146.27;100.00;48419.50;5087272;28;20438;-69
2023/03/12 08:41:07;;;;;;;57.22;25.15;;;;;;;-146.27;100.00;48415.53;5085582;28;20032;-70
2023/03/12 08:43:32;;;;;;;63.40;27.65;;;;;;;-146.27;100.00;48431.47;5089734;28;20028;-69
2023/03/12 08:45:59;;;;;;;71.03;27.48;;;;;;;-146.27;100.00;48421.50;5089161;28;20073;-69
2023/03/12 08:48:26;;;;;;;60.85;27.52;;;;;;;-146.27;100.00;48411.53;5089455;28;20027;-69
2023/03/12 08:50:55;;;;;;;60.83;24.83;;;;;;;-146.27;100.00;48413.53;5092636;28;20024;-68
2023/03/12 08:53:21;;;;;;;61.63;24.48;;;;;;;-146.27;100.00;48437.44;5087064;28;20388;-68
2023/03/12 08:55:47;;;;;;;63.90;26.42;;;;;;;-146.27;100.00;48435.44;5091176;28;20028;-67
2023/03/12 08:58:12;;;;;;;64.20;27.20;;;;;;;-146.27;100.00;48437.44;5096173;28;20103;-66
2023/03/12 09:00:37;;;;;;;65.38;25.98;;;;;;;-146.27;100.00;48419.50;5091776;28;20027;-67
2023/03/12 09:03:03;;;;;;;67.22;25.77;;;;;;;-146.27;100.00;48401.56;5088716;28;20028;-67
2023/03/12 09:05:28;;;;;;;70.53;26.17;;;;;;;-146.27;100.00;48381.66;5086791;28;20380;-67
2023/03/12 09:07:56;;;;;;;64.00;25.58;;;;;;;-146.27;100.00;48429.47;5080977;28;20044;-67
2023/03/12 09:10:21;;;;;;;60.80;24.20;;;;;;;-146.27;100.00;48403.56;5091867;28;20486;-69
2023/03/12 09:12:47;;;;;;;66.60;25.77;;;;;;;-146.27;100.00;48421.50;5083071;28;20102;-68
2023/03/12 09:15:12;;;;;;;54.45;20.63;;;;;;;-146.27;100.00;48411.53;5090634;28;20522;-68
2023/03/12 09:17:38;;;;;;;58.97;21.13;;;;;;;-146.27;100.00;48395.59;5088142;28;20024;-68
2023/03/12 09:20:08;;;;;;;51.72;17.95;;;;;;;-146.27;100.00;48427.47;5085339;28;20028;-68
2023/03/12 09:22:36;;;;;;;47.10;14.75;;;;;;;-146.27;100.00;48423.50;5089039;28;20055;-69
2023/03/12 09:25:04;;;;;;;48.80;12.25;;;;;;;-146.27;100.00;48379.66;5089823;28;20375;-68
2023/03/12 09:27:29;;;;;;;40.78;11.18;;;;;;;-146.27;100.00;48391.63;5078793;28;20028;-68
2023/03/12 09:29:54;;;;;;;37.42;8.48;;;;;;;-146.27;100.00;48343.81;5076843;28;20077;-69
2023/03/12 09:32:20;;;;;;;48.10;8.00;;;;;;;-146.27;100.00;48395.59;5088620;28;20024;-68
2023/03/12 09:34:45;;;;;;;50.47;7.47;;;;;;;-146.27;100.00;48379.66;5089947;28;20032;-69
2023/03/12 09:37:10;;;;;;;45.25;8.27;;;;;;;-146.27;100.00;48403.56;5090243;28;20052;-68
2023/03/12 09:39:36;;;;;;;35.58;7.80;;;;;;;-146.27;100.00;48415.53;5077823;28;20029;-67
2023/03/12 09:42:05;;;;;;;41.47;6.65;;;;;;;-146.27;100.00;48395.59;5078651;28;20027;-67
2023/03/12 09:44:31;;;;;;;35.80;6.70;;;;;;;-146.27;100.00;48407.56;5085239;28;20024;-67
2023/03/12 09:47:17;;;;;;;41.08;6.07;;;;;;;-146.27;100.00;48383.66;5089899;28;20028;-68
2023/03/12 09:49:48;;;;;;;48.05;6.53;;;;;;;-146.27;100.00;48403.56;5084714;28;20062;-68
2023/03/12 09:52:38;;;;;;;44.47;6.53;;;;;;;-146.27;100.00;48375.69;5083961;28;20039;-69
2023/03/12 09:55:22;;;;;;;39.92;5.80;;;;;;;-146.27;100.00;48419.50;5081935;28;20035;-67
2023/03/12 09:57:49;;;;;;;;;;;;;;;-146.27;100.00;48375.69;5089512;28;20453;-68
2023/03/12 10:00:25;;;;;;;27.10;5.00;;;;;;;-146.27;100.00;48393.63;5078615;28;19919;-68
2023/03/12 10:02:53;;;;;;;33.85;4.55;;;;;;;-146.27;100.00;48429.47;5085701;28;20028;-67
2023/03/12 10:05:50;;;;;;;28.80;6.10;;;;;;;-146.27;100.00;48383.66;5080723;28;20487;-68
2023/03/12 10:08:28;;;;;;;24.58;5.15;;;;;;;-146.27;100.00;48391.63;5081010;28;20028;-67
2023/03/12 10:11:11;;;;;;;27.05;5.22;;;;;;;-146.27;100.00;48401.56;5086944;28;20028;-69
2023/03/12 10:13:58;;;;;;;41.13;5.47;;;;;;;-146.27;100.00;48415.53;5093801;28;20422;-70
2023/03/12 10:16:45;;;;;;;26.35;4.22;;;;;;;-146.27;100.00;48371.69;5087516;28;20111;-68
2023/03/12 10:19:24;;;;;;;29.13;5.20;;;;;;;-146.27;100.00;48357.75;5080336;28;20028;-69
2023/03/12 10:22:04;;;;;;;32.50;4.72;;;;;;;-146.27;100.00;48395.59;5087164;28;20123;-68
2023/03/12 10:24:38;;;;;;;36.50;4.78;;;;;;;-146.27;100.00;48415.53;5087336;28;20021;-70
2023/03/12 10:27:11;;;;;;;31.50;5.38;;;;;;;-146.27;100.00;48377.69;5081072;28;20408;-70
2023/03/12 10:29:39;;;;;;;39.08;5.38;;;;;;;-146.27;100.00;48399.59;5087372;28;20182;-69
2023/03/12 10:32:10;;;;;;;26.83;4.32;;;;;;;-146.27;100.00;48387.63;5083858;28;20093;-69
2023/03/12 10:34:41;;;;;;;38.08;5.65;;;;;;;-146.27;100.00;48367.72;5080333;28;20020;-70
2023/03/12 10:37:51;;;;;;;40.45;4.75;;;;;;;-146.27;100.00;48365.72;5089982;28;20032;-68
2023/03/12 10:40:19;;;;;;;34.10;4.65;;;;;;;-146.27;100.00;48375.69;5042242;28;20033;-67
2023/03/12 10:42:45;;;;;;;27.98;4.10;;;;;;;-146.27;100.00;48397.59;5078888;28;20036;-70
2023/03/12 10:45:10;;;;;;;27.45;4.40;;;;;;;-146.27;100.00;48379.66;5091755;28;20096;-69
2023/03/12 10:47:40;;;;;;;26.38;4.60;;;;;;;-146.27;100.00;48371.69;5082021;28;20025;-69
2023/03/12 10:50:20;;;;;;;35.70;5.15;;;;;;;-146.27;100.00;48387.63;5087731;28;20065;-69
2023/03/12 10:52:49;;;;;;;39.63;5.28;;;;;;;-146.27;100.00;48385.66;5089309;28;20020;-70
2023/03/12 10:55:22;;;;;;;35.75;5.15;;;;;;;-146.27;100.00;48375.69;5079439;28;20048;-70
2023/03/12 10:57:47;;;;;;;33.00;5.53;;;;;;;-146.27;100.00;48395.59;5083876;28;20035;-70
2023/03/12 11:00:26;;;;;;;35.97;6.70;;;;;;;-146.27;100.00;48387.63;5088628;28;20024;-71
2023/03/12 11:03:03;;;;;;;39.58;6.22;;;;;;;-146.27;100.00;48387.63;5081675;28;20039;-70
2023/03/12 11:05:50;;;;;;;26.23;4.22;;;;;;;-146.27;100.00;48431.47;5080036;28;20403;-71
2023/03/12 11:08:34;;;;;;;31.85;4.13;;;;;;;-146.27;100.00;48381.66;5074420;28;20033;-70